createdAt,value
2023-08-22T00:00:32.568Z,21.11
2023-08-22T00:03:19.796Z,21.07
2023-08-22T00:05:46.729Z,21.06
2023-08-22T00:08:13.572Z,21.04
2023-08-22T00:10:41.028Z,21.02
2023-08-22T00:13:07.871Z,21.00
2023-08-22T00:15:34.958Z,20.97
2023-08-22T00:18:02.192Z,20.96
2023-08-22T00:20:29.222Z,20.95
2023-08-22T00:22:56.150Z,20.94
2023-08-22T00:25:22.998Z,20.95
2023-08-22T00:27:49.840Z,20.96
2023-08-22T00:30:16.679Z,20.98
2023-08-22T00:32:43.677Z,21.01
2023-08-22T00:35:12.522Z,21.04
2023-08-22T00:37:39.661Z,21.09
2023-08-22T00:40:07.936Z,21.14
2023-08-22T00:42:34.783Z,21.14
2023-08-22T00:45:02.846Z,21.15
2023-08-22T00:47:30.236Z,21.14
2023-08-22T00:49:57.244Z,21.13
2023-08-22T00:52:24.087Z,21.12
2023-08-22T00:54:51.749Z,21.11
2023-08-22T00:57:18.791Z,21.09
2023-08-22T00:59:45.736Z,21.07
2023-08-22T01:02:15.367Z,21.05
2023-08-22T01:04:44.026Z,21.03
2023-08-22T01:07:27.456Z,21.00
2023-08-22T01:10:00.038Z,20.99
2023-08-22T01:12:33.020Z,20.97
2023-08-22T01:15:11.228Z,20.96
2023-08-22T01:17:39.594Z,20.96
2023-08-22T01:20:12.487Z,20.96
2023-08-22T01:22:42.515Z,20.97
2023-08-22T01:25:09.672Z,20.96
2023-08-22T01:27:59.333Z,20.92
2023-08-22T01:30:34.195Z,20.93
2023-08-22T01:33:07.642Z,20.93
2023-08-22T01:35:35.624Z,20.92
2023-08-22T01:38:03.529Z,20.89
2023-08-22T01:40:31.040Z,20.89
2023-08-22T01:43:00.341Z,20.88
2023-08-22T01:45:27.592Z,20.86
2023-08-22T01:47:54.627Z,20.85
2023-08-22T01:50:21.681Z,20.84
2023-08-22T01:52:48.933Z,20.84
2023-08-22T01:55:16.395Z,20.84
2023-08-22T01:57:45.791Z,20.84
2023-08-22T02:00:13.350Z,20.83
2023-08-22T02:02:40.270Z,20.82
2023-08-22T02:05:08.206Z,20.80
2023-08-22T02:07:36.363Z,20.81
2023-08-22T02:10:06.862Z,20.81
2023-08-22T02:12:33.799Z,20.81
2023-08-22T02:15:01.081Z,20.80
2023-08-22T02:17:28.210Z,20.80
2023-08-22T02:19:57.761Z,20.78
2023-08-22T02:22:24.652Z,20.78
2023-08-22T02:24:51.491Z,20.76
2023-08-22T02:27:18.435Z,20.74
2023-08-22T02:29:45.274Z,20.72
2023-08-22T02:32:12.115Z,20.69
2023-08-22T02:34:41.216Z,20.67
2023-08-22T02:37:08.255Z,20.65
2023-08-22T02:39:35.103Z,20.62
2023-08-22T02:42:02.755Z,20.58
2023-08-22T02:44:29.710Z,20.53
2023-08-22T02:46:56.645Z,20.50
2023-08-22T02:49:23.486Z,20.46
2023-08-22T02:51:50.322Z,20.44
2023-08-22T02:54:17.274Z,20.42
2023-08-22T02:56:44.212Z,20.39
2023-08-22T02:59:11.264Z,20.37
2023-08-22T03:01:38.097Z,20.35
2023-08-22T03:04:05.449Z,20.33
2023-08-22T03:06:32.292Z,20.33
2023-08-22T03:09:00.575Z,20.33
2023-08-22T03:11:28.737Z,20.32
2023-08-22T03:13:56.096Z,20.31
2023-08-22T03:16:23.672Z,20.31
2023-08-22T03:18:50.697Z,20.31
2023-08-22T03:21:17.640Z,20.30
2023-08-22T03:23:45.404Z,20.29
2023-08-22T03:26:14.765Z,20.28
2023-08-22T03:28:42.279Z,20.27
2023-08-22T03:31:09.527Z,20.26
2023-08-22T03:33:36.478Z,20.24
2023-08-22T03:36:06.692Z,20.21
2023-08-22T03:38:35.159Z,20.14
2023-08-22T03:41:03.536Z,20.15
2023-08-22T03:43:30.681Z,20.15
2023-08-22T03:45:58.001Z,20.14
2023-08-22T03:48:25.256Z,20.12
2023-08-22T03:50:53.053Z,20.11
2023-08-22T03:53:20.004Z,20.11
2023-08-22T03:55:47.042Z,20.12
2023-08-22T03:58:13.985Z,20.13
2023-08-22T04:00:41.048Z,20.16
2023-08-22T04:03:07.998Z,20.18
2023-08-22T04:05:35.125Z,20.19
2023-08-22T04:08:02.688Z,20.21
2023-08-22T04:10:29.621Z,20.23
2023-08-22T04:12:56.564Z,20.25
2023-08-22T04:15:23.558Z,20.29
2023-08-22T04:17:51.485Z,20.32
2023-08-22T04:20:18.828Z,20.35
2023-08-22T04:22:45.673Z,20.35
2023-08-22T04:25:14.163Z,20.33
2023-08-22T04:27:43.179Z,20.34
2023-08-22T04:30:12.278Z,20.35
2023-08-22T04:32:39.445Z,20.36
2023-08-22T04:35:08.172Z,20.38
2023-08-22T04:37:38.325Z,20.39
2023-08-22T04:40:06.166Z,20.41
2023-08-22T04:42:51.734Z,20.41
2023-08-22T04:45:19.083Z,20.43
2023-08-22T04:47:46.582Z,20.47
2023-08-22T04:50:14.101Z,20.52
2023-08-22T04:52:41.044Z,20.56
2023-08-22T04:55:08.605Z,20.64
2023-08-22T04:57:35.454Z,20.71
2023-08-22T05:00:04.642Z,20.78
2023-08-22T05:02:31.641Z,20.84
2023-08-22T05:04:58.841Z,20.92
2023-08-22T05:07:26.191Z,20.99
2023-08-22T05:09:53.439Z,21.05
2023-08-22T05:12:21.687Z,21.10
2023-08-22T05:14:48.633Z,21.12
2023-08-22T05:17:15.580Z,21.12
2023-08-22T05:19:43.062Z,21.14
2023-08-22T05:22:10.206Z,21.15
2023-08-22T05:24:39.410Z,21.17
2023-08-22T05:27:06.690Z,21.22
2023-08-22T05:29:34.558Z,21.29
2023-08-22T05:32:02.040Z,21.35
2023-08-22T05:34:29.225Z,21.41
2023-08-22T05:36:56.168Z,21.48
2023-08-22T05:39:23.630Z,21.55
2023-08-22T05:41:50.467Z,21.59
2023-08-22T05:44:18.234Z,21.64
2023-08-22T05:46:45.580Z,21.69
2023-08-22T05:49:13.137Z,21.74
2023-08-22T05:51:40.522Z,21.81
2023-08-22T05:54:07.437Z,21.92
2023-08-22T05:56:34.893Z,22.04
2023-08-22T05:59:01.841Z,22.17
2023-08-22T06:01:28.913Z,22.30
2023-08-22T06:03:56.044Z,22.43
2023-08-22T06:06:22.976Z,22.54
2023-08-22T06:08:50.324Z,22.65
2023-08-22T06:11:17.780Z,22.75
2023-08-22T06:13:44.597Z,22.82
2023-08-22T06:16:11.714Z,22.89
2023-08-22T06:18:38.515Z,22.97
2023-08-22T06:21:05.354Z,23.06
2023-08-22T06:23:32.281Z,23.15
2023-08-22T06:25:59.238Z,23.22
2023-08-22T06:28:26.078Z,23.29
2023-08-22T06:30:54.769Z,23.30
2023-08-22T06:33:21.810Z,23.31
2023-08-22T06:35:48.855Z,23.32
2023-08-22T06:38:15.703Z,23.33
2023-08-22T06:40:43.259Z,23.38
2023-08-22T06:43:10.099Z,23.43
2023-08-22T06:45:38.110Z,23.48
2023-08-22T06:48:05.914Z,23.56
2023-08-22T06:50:32.974Z,23.63
2023-08-22T06:53:00.746Z,23.77
2023-08-22T06:55:27.590Z,23.99
2023-08-22T06:57:54.421Z,24.23
2023-08-22T07:00:22.287Z,24.46
2023-08-22T07:02:49.400Z,24.61
2023-08-22T07:05:18.339Z,24.76
2023-08-22T07:07:45.457Z,24.81
2023-08-22T07:10:13.823Z,24.80
2023-08-22T07:12:42.475Z,24.81
2023-08-22T07:15:09.789Z,24.78
2023-08-22T07:17:36.705Z,24.84
2023-08-22T07:20:04.695Z,24.88
2023-08-22T07:22:33.071Z,24.90
2023-08-22T07:25:00.018Z,24.93
2023-08-22T07:27:26.962Z,24.97
2023-08-22T07:29:54.005Z,25.01
2023-08-22T07:32:21.568Z,25.08
2023-08-22T07:34:48.607Z,25.14
2023-08-22T07:37:16.576Z,25.17
2023-08-22T07:39:43.728Z,25.24
2023-08-22T07:42:10.565Z,25.31
2023-08-22T07:44:37.409Z,25.37
2023-08-22T07:47:04.456Z,25.42
2023-08-22T07:49:31.316Z,25.50
2023-08-22T07:51:59.166Z,25.62
2023-08-22T07:54:26.116Z,25.70
2023-08-22T07:57:01.710Z,25.80
2023-08-22T07:59:35.452Z,25.90
2023-08-22T08:02:02.353Z,25.99
2023-08-22T08:04:31.389Z,26.10
2023-08-22T08:06:58.232Z,26.22
2023-08-22T08:09:35.036Z,26.32
2023-08-22T08:12:04.454Z,26.40
2023-08-22T08:14:31.757Z,26.50
2023-08-22T08:16:58.704Z,26.58
2023-08-22T08:19:27.431Z,26.64
2023-08-22T08:21:54.856Z,26.74
2023-08-22T08:24:22.089Z,26.88
2023-08-22T08:26:49.158Z,27.00
2023-08-22T08:29:18.542Z,27.05
2023-08-22T08:31:45.588Z,26.87
2023-08-22T08:34:12.448Z,26.68
2023-08-22T08:36:39.266Z,26.61
2023-08-22T08:39:06.518Z,26.82
2023-08-22T08:41:34.397Z,27.06
2023-08-22T08:44:02.045Z,27.25
2023-08-22T08:46:30.813Z,27.43
2023-08-22T08:48:58.288Z,27.62
2023-08-22T08:51:25.331Z,27.72
2023-08-22T08:53:53.097Z,27.61
2023-08-22T08:56:20.621Z,27.46
2023-08-22T08:58:49.237Z,27.38
2023-08-22T09:01:16.608Z,27.32
2023-08-22T09:03:45.476Z,27.29
2023-08-22T09:06:12.320Z,27.27
2023-08-22T09:08:39.977Z,27.28
2023-08-22T09:11:07.332Z,27.32
2023-08-22T09:13:54.028Z,27.38
2023-08-22T09:16:27.297Z,27.45
2023-08-22T09:19:01.161Z,27.51
2023-08-22T09:21:28.908Z,27.55
2023-08-22T09:24:09.387Z,27.56
2023-08-22T09:26:37.436Z,27.60
2023-08-22T09:29:07.971Z,27.67
2023-08-22T09:31:36.192Z,27.74
2023-08-22T09:34:09.118Z,27.81
2023-08-22T09:36:44.811Z,27.91
2023-08-22T09:39:21.331Z,28.02
2023-08-22T09:41:53.793Z,28.09
2023-08-22T09:44:25.645Z,28.16
2023-08-22T09:46:54.246Z,28.26
2023-08-22T09:49:22.215Z,28.37
2023-08-22T09:51:51.827Z,28.48
2023-08-22T09:54:18.769Z,28.62
2023-08-22T09:56:46.532Z,28.77
2023-08-22T09:59:16.847Z,28.92
2023-08-22T10:01:44.070Z,29.07
2023-08-22T10:04:13.235Z,29.24
2023-08-22T10:09:13.427Z,29.64
2023-08-22T10:11:49.078Z,29.85
2023-08-22T10:14:46.231Z,30.07
2023-08-22T10:17:13.991Z,30.31
2023-08-22T10:19:44.227Z,30.56
2023-08-22T10:22:13.057Z,30.81
2023-08-22T10:24:43.762Z,31.04
2023-08-22T10:27:16.271Z,31.28
2023-08-22T10:29:48.060Z,31.48
2023-08-22T10:32:14.932Z,31.68
2023-08-22T10:34:41.844Z,31.96
2023-08-22T10:37:22.917Z,32.28
2023-08-22T10:39:50.087Z,32.57
2023-08-22T10:42:18.139Z,32.79
2023-08-22T10:44:52.362Z,32.96
2023-08-22T10:47:20.907Z,33.10
2023-08-22T10:50:15.910Z,33.21
2023-08-22T10:52:44.385Z,33.45
2023-08-22T10:55:14.750Z,33.67
2023-08-22T10:57:46.917Z,33.84
2023-08-22T11:00:20.203Z,33.97
2023-08-22T11:02:57.933Z,34.12
2023-08-22T11:05:27.443Z,34.29
2023-08-22T11:07:54.240Z,34.60
2023-08-22T11:10:25.221Z,34.89
2023-08-22T11:12:55.206Z,35.09
2023-08-22T11:15:22.553Z,35.29
2023-08-22T11:17:51.407Z,35.32
2023-08-22T11:20:23.789Z,35.35
2023-08-22T11:22:50.893Z,35.48
2023-08-22T11:25:25.881Z,35.55
2023-08-22T11:27:53.444Z,35.57
2023-08-22T11:30:20.912Z,35.53
2023-08-22T11:32:48.295Z,35.42
2023-08-22T11:35:16.628Z,35.30
2023-08-22T11:37:44.436Z,35.26
2023-08-22T11:40:16.629Z,35.30
2023-08-22T11:42:46.981Z,35.34
2023-08-22T11:45:17.769Z,35.33
2023-08-22T11:47:49.626Z,35.30
2023-08-22T11:50:24.318Z,35.44
2023-08-22T11:53:19.054Z,35.61
2023-08-22T11:55:49.846Z,35.68
2023-08-22T11:58:17.492Z,35.62
2023-08-22T12:00:44.962Z,35.67
2023-08-22T12:03:12.101Z,35.59
2023-08-22T12:05:41.901Z,35.53
2023-08-22T12:08:11.611Z,35.44
2023-08-22T12:10:42.449Z,35.28
2023-08-22T12:13:10.327Z,35.07
2023-08-22T12:15:37.908Z,34.88
2023-08-22T12:18:05.476Z,34.77
2023-08-22T12:20:33.098Z,34.81
2023-08-22T12:23:01.675Z,34.99
2023-08-22T12:25:28.512Z,35.27
2023-08-22T12:27:55.561Z,35.58
2023-08-22T12:30:22.618Z,35.88
2023-08-22T12:32:49.778Z,36.23
2023-08-22T12:35:16.801Z,36.62
2023-08-22T12:37:44.140Z,37.04
2023-08-22T12:40:11.650Z,37.43
2023-08-22T12:42:47.916Z,37.80
2023-08-22T12:45:14.711Z,38.19
2023-08-22T12:47:43.334Z,38.49
2023-08-22T12:50:11.264Z,38.63
2023-08-22T12:52:38.519Z,38.75
2023-08-22T12:55:09.151Z,38.85
2023-08-22T12:57:37.437Z,38.92
2023-08-22T13:00:05.195Z,38.96
2023-08-22T13:02:32.319Z,38.98
2023-08-22T13:04:59.788Z,38.82
2023-08-22T13:07:26.831Z,38.47
2023-08-22T13:09:53.773Z,38.14
2023-08-22T13:12:20.622Z,37.75
2023-08-22T13:14:47.457Z,37.40
2023-08-22T13:17:14.404Z,37.02
2023-08-22T13:19:41.544Z,36.66
2023-08-22T13:22:08.409Z,36.33
2023-08-22T13:24:35.352Z,36.07
2023-08-22T13:27:02.283Z,35.90
2023-08-22T13:29:29.127Z,35.97
2023-08-22T13:31:56.104Z,36.35
2023-08-22T13:34:23.218Z,36.87
2023-08-22T13:36:50.482Z,37.17
2023-08-22T13:39:18.389Z,37.28
2023-08-22T13:41:47.423Z,37.31
2023-08-22T13:44:14.425Z,37.32
2023-08-22T13:46:42.652Z,37.49
2023-08-22T13:49:09.486Z,37.86
2023-08-22T13:51:36.329Z,38.02
2023-08-22T13:54:04.212Z,38.18
2023-08-22T13:56:31.876Z,38.46
2023-08-22T13:58:59.210Z,38.50
2023-08-22T14:01:27.369Z,38.39
2023-08-22T14:03:54.421Z,38.03
2023-08-22T14:06:21.481Z,37.48
2023-08-22T14:08:48.933Z,36.89
2023-08-22T14:11:15.963Z,36.31
2023-08-22T14:13:43.547Z,35.78
2023-08-22T14:16:10.869Z,35.31
2023-08-22T14:18:38.677Z,34.80
2023-08-22T14:21:06.212Z,34.32
2023-08-22T14:23:33.045Z,33.89
2023-08-22T14:25:59.992Z,33.49
2023-08-22T14:28:27.044Z,33.16
2023-08-22T14:31:01.630Z,32.91
2023-08-22T14:33:28.785Z,32.66
2023-08-22T14:35:56.766Z,32.45
2023-08-22T14:38:24.235Z,32.36
2023-08-22T14:40:55.694Z,32.33
2023-08-22T14:43:23.445Z,32.29
2023-08-22T14:45:51.436Z,32.20
2023-08-22T14:48:18.708Z,32.10
2023-08-22T14:50:46.018Z,31.97
2023-08-22T14:53:14.303Z,31.91
2023-08-22T14:55:55.867Z,31.98
2023-08-22T14:58:23.019Z,32.11
2023-08-22T15:00:50.235Z,32.15
2023-08-22T15:03:17.162Z,32.19
2023-08-22T15:05:44.256Z,32.42
2023-08-22T15:08:11.134Z,32.79
2023-08-22T15:10:38.246Z,33.28
2023-08-22T15:13:05.204Z,33.81
2023-08-22T15:15:32.303Z,34.17
2023-08-22T15:18:01.672Z,34.40
2023-08-22T15:20:28.729Z,34.50
2023-08-22T15:22:55.527Z,34.53
2023-08-22T15:25:23.493Z,34.38
2023-08-22T15:27:50.349Z,34.20
2023-08-22T15:30:17.285Z,34.13
2023-08-22T15:32:44.529Z,34.15
2023-08-22T15:35:11.484Z,34.30
2023-08-22T15:37:38.313Z,34.61
2023-08-22T15:40:06.181Z,34.72
2023-08-22T15:42:33.845Z,34.51
2023-08-22T15:45:01.199Z,34.16
2023-08-22T15:47:29.743Z,33.77
2023-08-22T15:49:57.641Z,33.38
2023-08-22T15:52:35.326Z,33.01
2023-08-22T15:55:08.637Z,32.57
2023-08-22T15:57:35.474Z,32.23
2023-08-22T16:00:03.155Z,31.96
2023-08-22T16:02:33.261Z,31.73
2023-08-22T16:05:00.606Z,31.54
2023-08-22T16:07:27.753Z,31.41
2023-08-22T16:09:54.699Z,31.34
2023-08-22T16:12:21.540Z,31.24
2023-08-22T16:14:48.375Z,31.15
2023-08-22T16:17:15.216Z,31.14
2023-08-22T16:19:42.017Z,31.19
2023-08-22T16:22:08.798Z,31.19
2023-08-22T16:24:35.744Z,31.08
2023-08-22T16:27:02.590Z,30.93
2023-08-22T16:29:29.525Z,30.76
2023-08-22T16:31:57.293Z,30.59
2023-08-22T16:34:24.149Z,30.40
2023-08-22T16:36:50.979Z,30.19
2023-08-22T16:39:18.737Z,29.95
2023-08-22T16:41:46.495Z,29.68
2023-08-22T16:44:13.542Z,29.46
2023-08-22T16:46:40.737Z,29.29
2023-08-22T16:49:10.607Z,29.15
2023-08-22T16:51:37.758Z,29.04
2023-08-22T16:54:08.215Z,28.93
2023-08-22T16:56:37.786Z,28.79
2023-08-22T16:59:09.329Z,28.64
2023-08-22T17:01:37.136Z,28.51
2023-08-22T17:04:04.191Z,28.39
2023-08-22T17:06:31.099Z,28.30
2023-08-22T17:08:59.269Z,28.18
2023-08-22T17:11:26.100Z,28.06
2023-08-22T17:13:53.057Z,27.87
2023-08-22T17:16:19.910Z,27.68
2023-08-22T17:18:47.043Z,27.46
2023-08-22T17:21:15.721Z,27.23
2023-08-22T17:23:44.197Z,27.01
2023-08-22T17:26:12.677Z,26.81
2023-08-22T17:28:40.560Z,26.63
2023-08-22T17:31:08.501Z,26.44
2023-08-22T17:33:39.036Z,26.26
2023-08-22T17:36:08.585Z,26.10
2023-08-22T17:38:36.313Z,25.96
2023-08-22T17:41:05.032Z,25.85
2023-08-22T17:43:33.539Z,25.77
2023-08-22T17:46:00.483Z,25.96
2023-08-22T17:48:27.868Z,26.17
2023-08-22T17:50:55.744Z,26.31
2023-08-22T17:53:22.993Z,26.43
2023-08-22T17:55:53.863Z,26.52
2023-08-22T17:58:21.302Z,26.57
2023-08-22T18:00:49.551Z,26.59
2023-08-22T18:03:16.755Z,26.59
2023-08-22T18:05:57.479Z,26.57
2023-08-22T18:08:25.027Z,26.55
2023-08-22T18:10:52.898Z,26.53
2023-08-22T18:13:20.250Z,26.51
2023-08-22T18:18:32.046Z,26.40
2023-08-22T18:21:03.267Z,26.35
2023-08-22T18:23:31.262Z,26.30
2023-08-22T18:26:02.330Z,26.22
2023-08-22T18:28:32.086Z,26.14
2023-08-22T18:31:02.638Z,26.08
2023-08-22T18:33:29.602Z,26.02
2023-08-22T18:35:56.549Z,25.98
2023-08-22T18:38:23.904Z,25.94
2023-08-22T18:40:54.218Z,25.92
2023-08-22T18:43:21.777Z,25.89
2023-08-22T18:45:49.167Z,25.84
2023-08-22T18:48:16.531Z,25.81
2023-08-22T18:50:43.521Z,25.76
2023-08-22T18:53:10.566Z,25.70
2023-08-22T18:55:37.508Z,25.63
2023-08-22T18:58:04.468Z,25.58
2023-08-22T19:00:31.444Z,25.51
2023-08-22T19:02:58.674Z,25.45
2023-08-22T19:05:25.910Z,25.38
2023-08-22T19:07:53.010Z,25.32
2023-08-22T19:10:20.248Z,25.27
2023-08-22T19:12:47.116Z,25.23
2023-08-22T19:15:13.981Z,25.19
2023-08-22T19:17:40.850Z,25.14
2023-08-22T19:20:08.578Z,25.09
2023-08-22T19:22:35.552Z,25.04
2023-08-22T19:25:02.780Z,25.00
2023-08-22T19:27:29.648Z,24.96
2023-08-22T19:29:56.564Z,24.92
2023-08-22T19:32:36.697Z,24.90
2023-08-22T19:35:10.721Z,24.85
2023-08-22T19:37:37.568Z,24.81
2023-08-22T19:40:05.028Z,24.76
2023-08-22T19:42:31.958Z,24.72
2023-08-22T19:45:02.006Z,24.69
2023-08-22T19:47:29.256Z,24.65
2023-08-22T19:49:56.378Z,24.61
2023-08-22T19:52:25.484Z,24.55
2023-08-22T19:54:52.514Z,24.50
2023-08-22T19:57:19.465Z,24.46
2023-08-22T19:59:46.404Z,24.43
2023-08-22T20:02:13.473Z,24.43
2023-08-22T20:04:40.902Z,24.43
2023-08-22T20:07:07.947Z,24.42
2023-08-22T20:09:36.040Z,24.42
2023-08-22T20:12:03.474Z,24.42
2023-08-22T20:14:31.341Z,24.42
2023-08-22T20:16:58.740Z,24.42
2023-08-22T20:19:25.638Z,24.41
2023-08-22T20:21:52.588Z,24.40
2023-08-22T20:24:19.536Z,24.39
2023-08-22T20:26:46.673Z,24.37
2023-08-22T20:29:13.613Z,24.35
2023-08-22T20:31:40.600Z,24.33
2023-08-22T20:34:07.607Z,24.33
2023-08-22T20:36:34.450Z,24.30
2023-08-22T20:39:04.464Z,24.29
2023-08-22T20:41:32.525Z,24.27
2023-08-22T20:43:59.797Z,24.26
2023-08-22T20:46:27.150Z,24.25
2023-08-22T20:48:54.240Z,24.24
2023-08-22T20:51:21.126Z,24.23
2023-08-22T20:53:47.972Z,24.22
2023-08-22T20:56:14.809Z,24.21
2023-08-22T20:58:41.657Z,24.20
2023-08-22T21:01:08.539Z,24.19
2023-08-22T21:03:35.716Z,24.17
2023-08-22T21:06:02.890Z,24.14
2023-08-22T21:08:29.736Z,24.12
2023-08-22T21:10:56.777Z,24.10
2023-08-22T21:13:23.624Z,24.06
2023-08-22T21:15:50.590Z,24.02
2023-08-22T21:18:17.620Z,23.97
2023-08-22T21:20:44.449Z,23.96
2023-08-22T21:23:11.290Z,23.91
2023-08-22T21:25:38.559Z,23.85
2023-08-22T21:28:05.609Z,23.81
2023-08-22T21:30:32.540Z,23.77
2023-08-22T21:32:59.471Z,23.74
2023-08-22T21:35:26.517Z,23.73
2023-08-22T21:37:53.368Z,23.72
2023-08-22T21:40:20.311Z,23.71
2023-08-22T21:42:47.348Z,23.70
2023-08-22T21:45:14.808Z,23.68
2023-08-22T21:47:42.601Z,23.66
2023-08-22T21:50:10.334Z,23.63
2023-08-22T21:52:38.115Z,23.59
2023-08-22T21:55:06.094Z,23.56
2023-08-22T21:57:33.416Z,23.51
2023-08-22T22:00:00.458Z,23.46
2023-08-22T22:02:27.713Z,23.36
2023-08-22T22:04:54.967Z,23.27
2023-08-22T22:07:22.022Z,23.18
2023-08-22T22:09:49.237Z,23.15
2023-08-22T22:12:16.219Z,23.12
2023-08-22T22:14:43.163Z,23.07
2023-08-22T22:17:09.990Z,23.00
2023-08-22T22:19:36.844Z,22.92
2023-08-22T22:22:03.880Z,22.85
2023-08-22T22:24:31.844Z,22.82
2023-08-22T22:26:58.687Z,22.80
2023-08-22T22:29:25.543Z,22.78
2023-08-22T22:31:52.380Z,22.77
2023-08-22T22:34:20.579Z,22.78
2023-08-22T22:36:48.817Z,22.78
2023-08-22T22:39:15.658Z,22.78
2023-08-22T22:41:42.497Z,22.81
2023-08-22T22:44:09.546Z,22.81
2023-08-22T22:46:36.433Z,22.83
2023-08-22T22:49:03.545Z,22.85
2023-08-22T22:51:30.377Z,22.88
2023-08-22T22:53:57.321Z,22.91
2023-08-22T22:56:24.174Z,22.92
2023-08-22T22:58:51.110Z,22.93
2023-08-22T23:01:17.962Z,22.96
2023-08-22T23:03:44.860Z,22.99
2023-08-22T23:06:11.945Z,23.02
2023-08-22T23:08:38.789Z,23.04
2023-08-22T23:11:07.217Z,23.05
2023-08-22T23:13:42.697Z,23.07
2023-08-22T23:16:09.606Z,23.10
2023-08-22T23:18:36.587Z,23.10
2023-08-22T23:21:03.529Z,23.11
2023-08-22T23:23:30.372Z,23.09
2023-08-22T23:26:00.080Z,23.05
2023-08-22T23:28:26.926Z,23.01
2023-08-22T23:30:53.803Z,22.96
2023-08-22T23:33:20.643Z,22.91
2023-08-22T23:35:47.444Z,22.90
2023-08-22T23:38:14.488Z,22.91
2023-08-22T23:40:41.435Z,22.88
2023-08-22T23:43:08.684Z,22.83
2023-08-22T23:45:35.539Z,22.79
2023-08-22T23:48:02.477Z,22.73
2023-08-22T23:50:30.672Z,22.71
2023-08-22T23:52:59.219Z,22.67
2023-08-22T23:55:26.164Z,22.59
2023-08-22T23:57:57.717Z,22.59
